sensor_id;sensor_type;location;lat;lon;timestamp;temperature;humidity
26721;HTU21D;15950;51.112;6.966;2023-05-10T00:02:27;14.50;88.88
26721;HTU21D;15950;51.112;6.966;2023-05-10T00:05:27;14.61;88.54
26721;HTU21D;15950;51.112;6.966;2023-05-10T00:08:27;14.55;88.98
26721;HTU21D;15950;51.112;6.966;2023-05-10T00:11:27;14.41;89.24
26721;HTU21D;15950;51.112;6.966;2023-05-10T00:14:27;14.63;88.69
26721;HTU21D;15950;51.112;6.966;2023-05-10T00:17:27;14.72;88.21
26721;HTU21D;15950;51.112;6.966;2023-05-10T00:20:27;14.70;88.35
26721;HTU21D;15950;51.112;6.966;2023-05-10T00:23:27;14.56;89.21
26721;HTU21D;15950;51.112;6.966;2023-05-10T00:26:27;14.52;88.93
26721;HTU21D;15950;51.112;6.966;2023-05-10T00:29:27;14.53;89.15
26721;HTU21D;15950;51.112;6.966;2023-05-10T00:32:27;14.51;89.60
26721;HTU21D;15950;51.112;6.966;2023-05-10T00:35:27;14.50;89.65
26721;HTU21D;15950;51.112;6.966;2023-05-10T00:38:27;14.49;89.47
26721;HTU21D;15950;51.112;6.966;2023-05-10T00:41:27;14.45;89.47
26721;HTU21D;15950;51.112;6.966;2023-05-10T00:44:27;14.47;89.57
26721;HTU21D;15950;51.112;6.966;2023-05-10T00:47:27;14.49;89.62
26721;HTU21D;15950;51.112;6.966;2023-05-10T00:50:27;14.42;90.08
26721;HTU21D;15950;51.112;6.966;2023-05-10T00:53:27;14.26;90.30
26721;HTU21D;15950;51.112;6.966;2023-05-10T00:56:27;14.19;90.27
26721;HTU21D;15950;51.112;6.966;2023-05-10T00:59:28;14.32;90.63
26721;HTU21D;15950;51.112;6.966;2023-05-10T01:02:27;14.46;90.12
26721;HTU21D;15950;51.112;6.966;2023-05-10T01:05:27;14.50;89.70
26721;HTU21D;15950;51.112;6.966;2023-05-10T01:08:28;14.43;89.89
26721;HTU21D;15950;51.112;6.966;2023-05-10T01:11:27;14.39;89.89
26721;HTU21D;15950;51.112;6.966;2023-05-10T01:14:28;14.18;90.67
26721;HTU21D;15950;51.112;6.966;2023-05-10T01:17:27;14.14;90.98
26721;HTU21D;15950;51.112;6.966;2023-05-10T01:20:32;14.26;91.05
26721;HTU21D;15950;51.112;6.966;2023-05-10T01:38:40;14.21;90.84
26721;HTU21D;15950;51.112;6.966;2023-05-10T01:41:34;14.25;90.71
26721;HTU21D;15950;51.112;6.966;2023-05-10T01:50:29;13.98;91.79
26721;HTU21D;15950;51.112;6.966;2023-05-10T01:53:28;14.06;91.14
26721;HTU21D;15950;51.112;6.966;2023-05-10T01:56:30;14.03;91.11
26721;HTU21D;15950;51.112;6.966;2023-05-10T01:59:30;14.03;90.71
26721;HTU21D;15950;51.112;6.966;2023-05-10T02:02:27;14.00;90.99
26721;HTU21D;15950;51.112;6.966;2023-05-10T02:05:29;13.52;91.58
26721;HTU21D;15950;51.112;6.966;2023-05-10T02:08:27;13.87;91.47
26721;HTU21D;15950;51.112;6.966;2023-05-10T02:11:28;13.89;90.77
26721;HTU21D;15950;51.112;6.966;2023-05-10T02:14:28;13.96;90.31
26721;HTU21D;15950;51.112;6.966;2023-05-10T02:17:27;14.15;89.84
26721;HTU21D;15950;51.112;6.966;2023-05-10T02:20:27;14.18;89.17
26721;HTU21D;15950;51.112;6.966;2023-05-10T02:23:28;14.17;89.13
26721;HTU21D;15950;51.112;6.966;2023-05-10T02:26:27;14.27;88.96
26721;HTU21D;15950;51.112;6.966;2023-05-10T02:29:27;14.25;88.76
26721;HTU21D;15950;51.112;6.966;2023-05-10T02:32:27;14.37;88.21
26721;HTU21D;15950;51.112;6.966;2023-05-10T02:35:27;14.36;88.16
26721;HTU21D;15950;51.112;6.966;2023-05-10T02:38:27;14.34;88.08
26721;HTU21D;15950;51.112;6.966;2023-05-10T02:41:28;14.41;88.04
26721;HTU21D;15950;51.112;6.966;2023-05-10T02:44:28;13.82;89.70
26721;HTU21D;15950;51.112;6.966;2023-05-10T02:47:30;14.20;89.08
26721;HTU21D;15950;51.112;6.966;2023-05-10T02:50:28;14.17;89.12
26721;HTU21D;15950;51.112;6.966;2023-05-10T02:53:35;14.22;88.86
26721;HTU21D;15950;51.112;6.966;2023-05-10T02:56:33;14.12;89.55
26721;HTU21D;15950;51.112;6.966;2023-05-10T02:59:27;13.89;89.44
26721;HTU21D;15950;51.112;6.966;2023-05-10T03:02:27;14.31;88.35
26721;HTU21D;15950;51.112;6.966;2023-05-10T03:05:27;14.28;88.74
26721;HTU21D;15950;51.112;6.966;2023-05-10T03:08:27;13.93;89.29
26721;HTU21D;15950;51.112;6.966;2023-05-10T03:20:38;14.42;87.90
26721;HTU21D;15950;51.112;6.966;2023-05-10T03:23:33;14.32;88.30
26721;HTU21D;15950;51.112;6.966;2023-05-10T03:26:28;14.42;88.31
26721;HTU21D;15950;51.112;6.966;2023-05-10T03:29:28;14.50;87.70
26721;HTU21D;15950;51.112;6.966;2023-05-10T03:32:29;14.42;88.02
26721;HTU21D;15950;51.112;6.966;2023-05-10T03:35:27;14.42;88.49
26721;HTU21D;15950;51.112;6.966;2023-05-10T03:38:27;14.53;87.69
26721;HTU21D;15950;51.112;6.966;2023-05-10T03:41:27;14.57;87.44
26721;HTU21D;15950;51.112;6.966;2023-05-10T03:44:27;14.42;87.73
26721;HTU21D;15950;51.112;6.966;2023-05-10T03:47:27;14.43;87.82
26721;HTU21D;15950;51.112;6.966;2023-05-10T03:50:27;14.55;87.67
26721;HTU21D;15950;51.112;6.966;2023-05-10T03:53:27;14.62;87.07
26721;HTU21D;15950;51.112;6.966;2023-05-10T03:56:27;14.60;86.86
26721;HTU21D;15950;51.112;6.966;2023-05-10T03:59:27;14.55;87.27
26721;HTU21D;15950;51.112;6.966;2023-05-10T04:02:27;14.52;87.67
26721;HTU21D;15950;51.112;6.966;2023-05-10T04:05:27;14.46;87.48
26721;HTU21D;15950;51.112;6.966;2023-05-10T04:08:27;14.53;87.59
26721;HTU21D;15950;51.112;6.966;2023-05-10T04:11:27;14.38;87.66
26721;HTU21D;15950;51.112;6.966;2023-05-10T04:14:27;14.53;87.54
26721;HTU21D;15950;51.112;6.966;2023-05-10T04:17:27;14.59;87.14
26721;HTU21D;15950;51.112;6.966;2023-05-10T04:20:27;14.62;86.96
26721;HTU21D;15950;51.112;6.966;2023-05-10T04:23:27;14.68;86.71
26721;HTU21D;15950;51.112;6.966;2023-05-10T04:26:27;14.56;87.15
26721;HTU21D;15950;51.112;6.966;2023-05-10T04:29:27;14.60;87.13
26721;HTU21D;15950;51.112;6.966;2023-05-10T04:32:27;14.67;87.31
26721;HTU21D;15950;51.112;6.966;2023-05-10T04:35:27;14.69;87.42
26721;HTU21D;15950;51.112;6.966;2023-05-10T04:38:28;14.64;87.38
26721;HTU21D;15950;51.112;6.966;2023-05-10T04:41:27;14.67;87.35
26721;HTU21D;15950;51.112;6.966;2023-05-10T04:44:27;14.41;88.24
26721;HTU21D;15950;51.112;6.966;2023-05-10T04:47:27;14.61;87.93
26721;HTU21D;15950;51.112;6.966;2023-05-10T04:50:27;14.64;87.79
26721;HTU21D;15950;51.112;6.966;2023-05-10T04:53:27;14.63;87.79
26721;HTU21D;15950;51.112;6.966;2023-05-10T04:56:27;14.54;87.93
26721;HTU21D;15950;51.112;6.966;2023-05-10T04:59:27;14.57;88.24
26721;HTU21D;15950;51.112;6.966;2023-05-10T05:02:27;14.37;88.78
26721;HTU21D;15950;51.112;6.966;2023-05-10T05:05:27;14.43;89.31
26721;HTU21D;15950;51.112;6.966;2023-05-10T05:08:27;14.20;90.19
26721;HTU21D;15950;51.112;6.966;2023-05-10T05:11:27;14.41;89.78
26721;HTU21D;15950;51.112;6.966;2023-05-10T05:14:27;14.25;90.21
26721;HTU21D;15950;51.112;6.966;2023-05-10T05:17:27;14.29;90.33
26721;HTU21D;15950;51.112;6.966;2023-05-10T05:20:27;14.20;90.59
26721;HTU21D;15950;51.112;6.966;2023-05-10T05:23:27;14.23;90.51
26721;HTU21D;15950;51.112;6.966;2023-05-10T05:26:27;14.13;90.74
26721;HTU21D;15950;51.112;6.966;2023-05-10T05:29:27;14.24;90.61
26721;HTU21D;15950;51.112;6.966;2023-05-10T05:32:27;14.18;90.89
26721;HTU21D;15950;51.112;6.966;2023-05-10T05:35:27;14.11;91.18
26721;HTU21D;15950;51.112;6.966;2023-05-10T05:38:27;14.10;91.67
26721;HTU21D;15950;51.112;6.966;2023-05-10T05:41:27;14.24;91.07
26721;HTU21D;15950;51.112;6.966;2023-05-10T05:44:27;14.25;90.87
26721;HTU21D;15950;51.112;6.966;2023-05-10T05:47:27;14.13;90.52
26721;HTU21D;15950;51.112;6.966;2023-05-10T05:50:27;14.20;90.50
26721;HTU21D;15950;51.112;6.966;2023-05-10T05:53:27;14.04;90.31
26721;HTU21D;15950;51.112;6.966;2023-05-10T05:56:27;14.27;89.44
26721;HTU21D;15950;51.112;6.966;2023-05-10T05:59:27;13.96;89.86
26721;HTU21D;15950;51.112;6.966;2023-05-10T06:02:27;14.08;89.41
26721;HTU21D;15950;51.112;6.966;2023-05-10T06:05:27;14.10;89.73
26721;HTU21D;15950;51.112;6.966;2023-05-10T06:08:27;13.92;89.33
26721;HTU21D;15950;51.112;6.966;2023-05-10T06:11:27;14.15;89.00
26721;HTU21D;15950;51.112;6.966;2023-05-10T06:14:27;14.13;89.06
26721;HTU21D;15950;51.112;6.966;2023-05-10T06:17:27;14.18;88.59
26721;HTU21D;15950;51.112;6.966;2023-05-10T06:20:27;14.19;88.73
26721;HTU21D;15950;51.112;6.966;2023-05-10T06:23:27;14.12;88.85
26721;HTU21D;15950;51.112;6.966;2023-05-10T06:26:27;14.03;89.05
26721;HTU21D;15950;51.112;6.966;2023-05-10T06:29:27;14.20;88.74
26721;HTU21D;15950;51.112;6.966;2023-05-10T06:32:27;14.36;88.01
26721;HTU21D;15950;51.112;6.966;2023-05-10T06:35:28;14.42;87.10
26721;HTU21D;15950;51.112;6.966;2023-05-10T06:38:27;14.33;87.61
26721;HTU21D;15950;51.112;6.966;2023-05-10T06:41:27;14.32;88.10
26721;HTU21D;15950;51.112;6.966;2023-05-10T06:44:27;14.30;87.94
26721;HTU21D;15950;51.112;6.966;2023-05-10T06:47:27;14.21;88.65
26721;HTU21D;15950;51.112;6.966;2023-05-10T06:50:27;14.27;88.74
26721;HTU21D;15950;51.112;6.966;2023-05-10T06:53:27;14.12;88.31
26721;HTU21D;15950;51.112;6.966;2023-05-10T06:56:27;14.48;87.58
26721;HTU21D;15950;51.112;6.966;2023-05-10T06:59:27;13.99;88.18
26721;HTU21D;15950;51.112;6.966;2023-05-10T07:02:27;14.10;89.54
26721;HTU21D;15950;51.112;6.966;2023-05-10T07:05:27;14.26;88.70
26721;HTU21D;15950;51.112;6.966;2023-05-10T07:08:27;14.07;89.50
26721;HTU21D;15950;51.112;6.966;2023-05-10T07:11:27;14.10;89.01
26721;HTU21D;15950;51.112;6.966;2023-05-10T07:14:27;14.15;89.15
26721;HTU21D;15950;51.112;6.966;2023-05-10T07:17:27;14.07;89.35
26721;HTU21D;15950;51.112;6.966;2023-05-10T07:20:27;14.02;90.35
26721;HTU21D;15950;51.112;6.966;2023-05-10T07:23:27;14.21;89.59
26721;HTU21D;15950;51.112;6.966;2023-05-10T07:26:27;14.25;89.48
26721;HTU21D;15950;51.112;6.966;2023-05-10T07:29:27;14.28;90.19
26721;HTU21D;15950;51.112;6.966;2023-05-10T07:32:27;14.32;89.72
26721;HTU21D;15950;51.112;6.966;2023-05-10T07:35:27;14.46;89.79
26721;HTU21D;15950;51.112;6.966;2023-05-10T07:38:27;14.31;89.64
26721;HTU21D;15950;51.112;6.966;2023-05-10T07:41:27;14.19;90.31
26721;HTU21D;15950;51.112;6.966;2023-05-10T07:44:27;14.17;90.00
26721;HTU21D;15950;51.112;6.966;2023-05-10T07:47:27;14.21;90.21
26721;HTU21D;15950;51.112;6.966;2023-05-10T07:50:27;14.29;90.03
26721;HTU21D;15950;51.112;6.966;2023-05-10T07:53:27;14.31;89.73
26721;HTU21D;15950;51.112;6.966;2023-05-10T07:56:29;14.26;89.60
26721;HTU21D;15950;51.112;6.966;2023-05-10T07:59:27;14.27;89.79
26721;HTU21D;15950;51.112;6.966;2023-05-10T08:02:27;14.33;89.48
26721;HTU21D;15950;51.112;6.966;2023-05-10T08:05:27;14.26;89.92
26721;HTU21D;15950;51.112;6.966;2023-05-10T08:08:27;14.46;89.75
26721;HTU21D;15950;51.112;6.966;2023-05-10T08:11:27;14.49;89.32
26721;HTU21D;15950;51.112;6.966;2023-05-10T08:14:28;14.54;89.56
26721;HTU21D;15950;51.112;6.966;2023-05-10T08:17:27;14.45;88.68
26721;HTU21D;15950;51.112;6.966;2023-05-10T08:20:27;14.39;88.89
26721;HTU21D;15950;51.112;6.966;2023-05-10T08:23:27;14.52;89.38
26721;HTU21D;15950;51.112;6.966;2023-05-10T08:26:27;14.45;88.86
26721;HTU21D;15950;51.112;6.966;2023-05-10T08:29:27;14.51;88.97
26721;HTU21D;15950;51.112;6.966;2023-05-10T08:32:27;14.53;89.18
26721;HTU21D;15950;51.112;6.966;2023-05-10T08:35:27;14.54;89.45
26721;HTU21D;15950;51.112;6.966;2023-05-10T08:38:27;14.35;88.51
26721;HTU21D;15950;51.112;6.966;2023-05-10T08:41:27;14.52;88.42
26721;HTU21D;15950;51.112;6.966;2023-05-10T08:44:27;14.52;88.63
26721;HTU21D;15950;51.112;6.966;2023-05-10T08:47:27;14.42;88.47
26721;HTU21D;15950;51.112;6.966;2023-05-10T08:50:27;14.57;89.02
26721;HTU21D;15950;51.112;6.966;2023-05-10T08:53:28;14.66;88.74
26721;HTU21D;15950;51.112;6.966;2023-05-10T08:56:27;14.51;88.78
26721;HTU21D;15950;51.112;6.966;2023-05-10T08:59:27;14.53;88.25
26721;HTU21D;15950;51.112;6.966;2023-05-10T09:02:27;14.54;88.64
26721;HTU21D;15950;51.112;6.966;2023-05-10T09:05:27;14.40;87.69
26721;HTU21D;15950;51.112;6.966;2023-05-10T09:08:27;14.81;87.86
26721;HTU21D;15950;51.112;6.966;2023-05-10T09:11:27;14.89;87.06
26721;HTU21D;15950;51.112;6.966;2023-05-10T09:14:27;14.53;86.51
26721;HTU21D;15950;51.112;6.966;2023-05-10T09:17:28;14.73;86.85
26721;HTU21D;15950;51.112;6.966;2023-05-10T09:20:27;14.82;86.71
26721;HTU21D;15950;51.112;6.966;2023-05-10T09:23:27;14.85;86.17
26721;HTU21D;15950;51.112;6.966;2023-05-10T09:26:27;14.79;86.45
26721;HTU21D;15950;51.112;6.966;2023-05-10T09:29:50;14.83;85.80
26721;HTU21D;15950;51.112;6.966;2023-05-10T09:35:29;14.88;85.84
26721;HTU21D;15950;51.112;6.966;2023-05-10T09:38:27;14.77;85.79
26721;HTU21D;15950;51.112;6.966;2023-05-10T09:41:27;14.70;86.22
26721;HTU21D;15950;51.112;6.966;2023-05-10T09:44:27;14.52;86.48
26721;HTU21D;15950;51.112;6.966;2023-05-10T09:47:27;14.54;86.45
26721;HTU21D;15950;51.112;6.966;2023-05-10T09:50:28;14.50;86.36
26721;HTU21D;15950;51.112;6.966;2023-05-10T09:53:27;14.57;87.03
26721;HTU21D;15950;51.112;6.966;2023-05-10T09:56:32;14.48;87.48
26721;HTU21D;15950;51.112;6.966;2023-05-10T09:59:28;14.30;88.74
26721;HTU21D;15950;51.112;6.966;2023-05-10T10:02:30;14.18;89.05
26721;HTU21D;15950;51.112;6.966;2023-05-10T10:05:34;14.21;89.85
26721;HTU21D;15950;51.112;6.966;2023-05-10T10:08:27;14.40;89.94
26721;HTU21D;15950;51.112;6.966;2023-05-10T10:11:27;14.64;89.15
26721;HTU21D;15950;51.112;6.966;2023-05-10T10:14:28;14.50;89.14
26721;HTU21D;15950;51.112;6.966;2023-05-10T10:17:27;14.58;88.33
26721;HTU21D;15950;51.112;6.966;2023-05-10T10:20:27;14.68;88.56
26721;HTU21D;15950;51.112;6.966;2023-05-10T10:23:27;14.41;87.82
26721;HTU21D;15950;51.112;6.966;2023-05-10T10:26:27;14.50;87.51
26721;HTU21D;15950;51.112;6.966;2023-05-10T10:32:35;14.56;87.72
26721;HTU21D;15950;51.112;6.966;2023-05-10T10:35:29;14.61;87.48
26721;HTU21D;15950;51.112;6.966;2023-05-10T10:38:36;14.82;87.70
26721;HTU21D;15950;51.112;6.966;2023-05-10T10:47:29;14.66;86.95
26721;HTU21D;15950;51.112;6.966;2023-05-10T10:50:27;14.85;87.09
26721;HTU21D;15950;51.112;6.966;2023-05-10T10:53:27;14.86;86.74
26721;HTU21D;15950;51.112;6.966;2023-05-10T10:56:27;14.77;86.64
26721;HTU21D;15950;51.112;6.966;2023-05-10T10:59:27;14.94;85.99
26721;HTU21D;15950;51.112;6.966;2023-05-10T11:08:28;15.34;84.27
26721;HTU21D;15950;51.112;6.966;2023-05-10T11:11:27;15.40;85.23
26721;HTU21D;15950;51.112;6.966;2023-05-10T11:14:27;15.19;84.55
26721;HTU21D;15950;51.112;6.966;2023-05-10T11:17:27;15.14;83.91
26721;HTU21D;15950;51.112;6.966;2023-05-10T11:20:28;15.17;82.58
26721;HTU21D;15950;51.112;6.966;2023-05-10T11:23:47;15.22;82.81
26721;HTU21D;15950;51.112;6.966;2023-05-10T11:26:32;15.63;83.23
26721;HTU21D;15950;51.112;6.966;2023-05-10T11:29:27;15.55;82.13
26721;HTU21D;15950;51.112;6.966;2023-05-10T11:32:27;15.45;80.98
26721;HTU21D;15950;51.112;6.966;2023-05-10T11:35:27;15.57;81.32
26721;HTU21D;15950;51.112;6.966;2023-05-10T11:38:27;15.40;81.16
26721;HTU21D;15950;51.112;6.966;2023-05-10T11:41:28;15.51;81.71
26721;HTU21D;15950;51.112;6.966;2023-05-10T11:44:31;15.53;80.91
26721;HTU21D;15950;51.112;6.966;2023-05-10T11:47:27;15.48;81.36
26721;HTU21D;15950;51.112;6.966;2023-05-10T11:50:27;15.56;82.17
26721;HTU21D;15950;51.112;6.966;2023-05-10T11:53:27;15.17;80.54
26721;HTU21D;15950;51.112;6.966;2023-05-10T11:56:27;15.40;80.76
26721;HTU21D;15950;51.112;6.966;2023-05-10T11:59:27;15.56;80.77
26721;HTU21D;15950;51.112;6.966;2023-05-10T12:02:28;15.60;79.75
26721;HTU21D;15950;51.112;6.966;2023-05-10T12:05:27;15.50;79.70
26721;HTU21D;15950;51.112;6.966;2023-05-10T12:08:28;15.49;79.68
26721;HTU21D;15950;51.112;6.966;2023-05-10T12:11:28;15.41;79.89
26721;HTU21D;15950;51.112;6.966;2023-05-10T12:14:27;15.43;80.45
26721;HTU21D;15950;51.112;6.966;2023-05-10T12:17:30;15.53;80.91
26721;HTU21D;15950;51.112;6.966;2023-05-10T12:20:27;15.42;81.09
26721;HTU21D;15950;51.112;6.966;2023-05-10T12:23:27;15.42;81.71
26721;HTU21D;15950;51.112;6.966;2023-05-10T12:26:28;15.47;82.17
26721;HTU21D;15950;51.112;6.966;2023-05-10T12:29:30;15.38;82.23
26721;HTU21D;15950;51.112;6.966;2023-05-10T12:35:30;15.42;82.90
26721;HTU21D;15950;51.112;6.966;2023-05-10T12:38:35;15.29;82.52
26721;HTU21D;15950;51.112;6.966;2023-05-10T12:41:27;15.37;82.88
26721;HTU21D;15950;51.112;6.966;2023-05-10T12:44:27;15.38;82.56
26721;HTU21D;15950;51.112;6.966;2023-05-10T12:47:27;15.69;81.47
26721;HTU21D;15950;51.112;6.966;2023-05-10T12:50:27;15.95;81.96
26721;HTU21D;15950;51.112;6.966;2023-05-10T12:53:27;15.70;80.78
26721;HTU21D;15950;51.112;6.966;2023-05-10T12:56:27;15.37;80.46
26721;HTU21D;15950;51.112;6.966;2023-05-10T12:59:27;15.59;80.78
26721;HTU21D;15950;51.112;6.966;2023-05-10T13:02:27;15.54;80.71
26721;HTU21D;15950;51.112;6.966;2023-05-10T13:05:27;15.43;80.97
26721;HTU21D;15950;51.112;6.966;2023-05-10T13:08:27;15.43;81.49
26721;HTU21D;15950;51.112;6.966;2023-05-10T13:11:27;15.37;81.32
26721;HTU21D;15950;51.112;6.966;2023-05-10T13:14:27;15.41;80.84
26721;HTU21D;15950;51.112;6.966;2023-05-10T13:17:27;15.27;81.24
26721;HTU21D;15950;51.112;6.966;2023-05-10T13:20:27;15.00;80.59
26721;HTU21D;15950;51.112;6.966;2023-05-10T13:23:27;15.19;81.09
26721;HTU21D;15950;51.112;6.966;2023-05-10T13:26:27;15.01;80.35
26721;HTU21D;15950;51.112;6.966;2023-05-10T13:29:27;15.11;81.39
26721;HTU21D;15950;51.112;6.966;2023-05-10T13:32:27;15.27;82.17
26721;HTU21D;15950;51.112;6.966;2023-05-10T13:35:27;15.21;82.35
26721;HTU21D;15950;51.112;6.966;2023-05-10T13:38:27;15.30;82.68
26721;HTU21D;15950;51.112;6.966;2023-05-10T13:41:27;15.20;81.17
26721;HTU21D;15950;51.112;6.966;2023-05-10T13:44:27;15.27;80.63
26721;HTU21D;15950;51.112;6.966;2023-05-10T13:47:27;15.23;80.97
26721;HTU21D;15950;51.112;6.966;2023-05-10T13:50:27;15.21;80.45
26721;HTU21D;15950;51.112;6.966;2023-05-10T13:53:27;15.14;79.93
26721;HTU21D;15950;51.112;6.966;2023-05-10T13:56:27;15.12;79.53
26721;HTU21D;15950;51.112;6.966;2023-05-10T13:59:28;15.35;80.11
26721;HTU21D;15950;51.112;6.966;2023-05-10T14:02:27;15.20;79.61
26721;HTU21D;15950;51.112;6.966;2023-05-10T14:05:27;15.32;79.82
26721;HTU21D;15950;51.112;6.966;2023-05-10T14:08:27;15.21;79.33
26721;HTU21D;15950;51.112;6.966;2023-05-10T14:11:27;15.46;80.02
26721;HTU21D;15950;51.112;6.966;2023-05-10T14:14:27;15.38;79.08
26721;HTU21D;15950;51.112;6.966;2023-05-10T14:17:27;15.35;79.33
26721;HTU21D;15950;51.112;6.966;2023-05-10T14:20:27;15.34;79.24
26721;HTU21D;15950;51.112;6.966;2023-05-10T14:23:27;15.41;80.09
26721;HTU21D;15950;51.112;6.966;2023-05-10T14:26:27;15.39;80.14
26721;HTU21D;15950;51.112;6.966;2023-05-10T14:29:27;15.33;79.66
26721;HTU21D;15950;51.112;6.966;2023-05-10T14:32:27;15.53;79.63
26721;HTU21D;15950;51.112;6.966;2023-05-10T14:35:27;15.57;79.33
26721;HTU21D;15950;51.112;6.966;2023-05-10T14:38:27;15.74;80.04
26721;HTU21D;15950;51.112;6.966;2023-05-10T14:41:27;15.77;80.17
26721;HTU21D;15950;51.112;6.966;2023-05-10T14:44:27;15.55;79.56
26721;HTU21D;15950;51.112;6.966;2023-05-10T14:47:27;15.69;80.06
26721;HTU21D;15950;51.112;6.966;2023-05-10T14:50:27;15.75;79.70
26721;HTU21D;15950;51.112;6.966;2023-05-10T14:53:27;15.72;79.42
26721;HTU21D;15950;51.112;6.966;2023-05-10T14:56:27;15.54;78.53
26721;HTU21D;15950;51.112;6.966;2023-05-10T14:59:27;15.48;79.08
26721;HTU21D;15950;51.112;6.966;2023-05-10T15:02:27;15.74;77.95
26721;HTU21D;15950;51.112;6.966;2023-05-10T15:05:27;15.44;75.23
26721;HTU21D;15950;51.112;6.966;2023-05-10T15:08:27;15.33;75.50
26721;HTU21D;15950;51.112;6.966;2023-05-10T15:11:27;15.70;76.13
26721;HTU21D;15950;51.112;6.966;2023-05-10T15:14:27;15.51;74.85
26721;HTU21D;15950;51.112;6.966;2023-05-10T15:17:27;15.43;74.37
26721;HTU21D;15950;51.112;6.966;2023-05-10T15:20:27;15.58;74.73
26721;HTU21D;15950;51.112;6.966;2023-05-10T15:23:27;15.69;74.96
26721;HTU21D;15950;51.112;6.966;2023-05-10T15:26:27;15.71;74.77
26721;HTU21D;15950;51.112;6.966;2023-05-10T15:29:27;15.96;74.83
26721;HTU21D;15950;51.112;6.966;2023-05-10T15:32:27;15.72;75.28
26721;HTU21D;15950;51.112;6.966;2023-05-10T15:35:27;15.97;75.05
26721;HTU21D;15950;51.112;6.966;2023-05-10T15:38:27;16.12;75.42
26721;HTU21D;15950;51.112;6.966;2023-05-10T15:41:27;16.18;77.05
26721;HTU21D;15950;51.112;6.966;2023-05-10T15:44:27;16.15;75.70
26721;HTU21D;15950;51.112;6.966;2023-05-10T15:47:29;16.26;75.44
26721;HTU21D;15950;51.112;6.966;2023-05-10T15:50:27;16.12;75.60
26721;HTU21D;15950;51.112;6.966;2023-05-10T15:53:27;16.28;75.23
26721;HTU21D;15950;51.112;6.966;2023-05-10T15:56:27;16.18;74.66
26721;HTU21D;15950;51.112;6.966;2023-05-10T15:59:27;16.33;74.12
26721;HTU21D;15950;51.112;6.966;2023-05-10T16:02:27;16.29;73.83
26721;HTU21D;15950;51.112;6.966;2023-05-10T16:05:27;16.40;74.33
26721;HTU21D;15950;51.112;6.966;2023-05-10T16:08:27;16.34;74.07
26721;HTU21D;15950;51.112;6.966;2023-05-10T16:11:27;16.43;74.19
26721;HTU21D;15950;51.112;6.966;2023-05-10T16:14:27;16.42;75.01
26721;HTU21D;15950;51.112;6.966;2023-05-10T16:17:27;16.29;74.96
26721;HTU21D;15950;51.112;6.966;2023-05-10T16:20:27;16.53;75.36
26721;HTU21D;15950;51.112;6.966;2023-05-10T16:23:27;16.41;77.06
26721;HTU21D;15950;51.112;6.966;2023-05-10T16:26:27;16.53;79.07
26721;HTU21D;15950;51.112;6.966;2023-05-10T16:29:27;16.57;78.91
26721;HTU21D;15950;51.112;6.966;2023-05-10T16:32:27;16.52;77.02
26721;HTU21D;15950;51.112;6.966;2023-05-10T16:35:27;16.58;76.89
26721;HTU21D;15950;51.112;6.966;2023-05-10T16:38:27;16.62;76.48
26721;HTU21D;15950;51.112;6.966;2023-05-10T16:41:27;16.51;75.86
26721;HTU21D;15950;51.112;6.966;2023-05-10T16:44:27;16.53;75.05
26721;HTU21D;15950;51.112;6.966;2023-05-10T16:47:27;16.28;77.36
26721;HTU21D;15950;51.112;6.966;2023-05-10T16:50:27;16.45;77.16
26721;HTU21D;15950;51.112;6.966;2023-05-10T16:53:27;16.52;77.00
26721;HTU21D;15950;51.112;6.966;2023-05-10T16:56:27;16.45;76.84
26721;HTU21D;15950;51.112;6.966;2023-05-10T16:59:27;16.45;76.34
26721;HTU21D;15950;51.112;6.966;2023-05-10T17:02:27;16.36;76.49
26721;HTU21D;15950;51.112;6.966;2023-05-10T17:05:27;16.25;77.73
26721;HTU21D;15950;51.112;6.966;2023-05-10T17:08:27;16.27;77.76
26721;HTU21D;15950;51.112;6.966;2023-05-10T17:11:27;16.11;77.08
26721;HTU21D;15950;51.112;6.966;2023-05-10T17:14:27;16.00;77.00
26721;HTU21D;15950;51.112;6.966;2023-05-10T17:17:27;16.14;77.22
26721;HTU21D;15950;51.112;6.966;2023-05-10T17:20:27;16.14;78.05
26721;HTU21D;15950;51.112;6.966;2023-05-10T17:23:27;16.09;78.88
26721;HTU21D;15950;51.112;6.966;2023-05-10T17:26:27;16.12;78.63
26721;HTU21D;15950;51.112;6.966;2023-05-10T17:29:27;15.81;79.00
26721;HTU21D;15950;51.112;6.966;2023-05-10T17:32:27;15.75;77.79
26721;HTU21D;15950;51.112;6.966;2023-05-10T17:35:27;15.51;76.52
26721;HTU21D;15950;51.112;6.966;2023-05-10T17:38:27;15.37;77.82
26721;HTU21D;15950;51.112;6.966;2023-05-10T17:41:27;15.53;77.90
26721;HTU21D;15950;51.112;6.966;2023-05-10T17:44:27;15.31;76.70
26721;HTU21D;15950;51.112;6.966;2023-05-10T17:47:27;15.34;76.19
26721;HTU21D;15950;51.112;6.966;2023-05-10T17:50:27;15.23;75.97
26721;HTU21D;15950;51.112;6.966;2023-05-10T17:53:27;15.55;74.64
26721;HTU21D;15950;51.112;6.966;2023-05-10T17:56:27;15.88;75.94
26721;HTU21D;15950;51.112;6.966;2023-05-10T17:59:27;15.75;77.12
26721;HTU21D;15950;51.112;6.966;2023-05-10T18:02:27;15.71;76.90
26721;HTU21D;15950;51.112;6.966;2023-05-10T18:05:27;15.70;75.92
26721;HTU21D;15950;51.112;6.966;2023-05-10T18:08:27;15.86;74.86
26721;HTU21D;15950;51.112;6.966;2023-05-10T18:11:27;15.87;76.82
26721;HTU21D;15950;51.112;6.966;2023-05-10T18:14:27;15.76;78.89
26721;HTU21D;15950;51.112;6.966;2023-05-10T18:17:27;15.74;79.52
26721;HTU21D;15950;51.112;6.966;2023-05-10T18:20:27;15.82;79.85
26721;HTU21D;15950;51.112;6.966;2023-05-10T18:23:27;15.90;79.53
26721;HTU21D;15950;51.112;6.966;2023-05-10T18:26:27;15.80;78.99
26721;HTU21D;15950;51.112;6.966;2023-05-10T18:29:27;15.62;79.26
26721;HTU21D;15950;51.112;6.966;2023-05-10T18:32:27;15.63;80.07
26721;HTU21D;15950;51.112;6.966;2023-05-10T18:35:27;15.64;80.57
26721;HTU21D;15950;51.112;6.966;2023-05-10T18:38:27;15.56;80.69
26721;HTU21D;15950;51.112;6.966;2023-05-10T18:41:27;15.63;80.78
26721;HTU21D;15950;51.112;6.966;2023-05-10T18:44:27;15.45;81.35
26721;HTU21D;15950;51.112;6.966;2023-05-10T18:47:27;15.18;82.36
26721;HTU21D;15950;51.112;6.966;2023-05-10T18:50:27;15.05;82.80
26721;HTU21D;15950;51.112;6.966;2023-05-10T18:53:27;14.69;84.85
26721;HTU21D;15950;51.112;6.966;2023-05-10T18:56:27;14.61;84.72
26721;HTU21D;15950;51.112;6.966;2023-05-10T18:59:27;14.80;84.81
26721;HTU21D;15950;51.112;6.966;2023-05-10T19:02:27;14.57;84.93
26721;HTU21D;15950;51.112;6.966;2023-05-10T19:05:27;14.38;85.45
26721;HTU21D;15950;51.112;6.966;2023-05-10T19:08:27;14.35;85.93
26721;HTU21D;15950;51.112;6.966;2023-05-10T19:11:27;14.67;84.92
26721;HTU21D;15950;51.112;6.966;2023-05-10T19:14:29;14.62;84.55
26721;HTU21D;15950;51.112;6.966;2023-05-10T19:17:27;14.60;84.46
26721;HTU21D;15950;51.112;6.966;2023-05-10T19:20:28;14.62;85.24
26721;HTU21D;15950;51.112;6.966;2023-05-10T19:23:27;14.97;83.90
26721;HTU21D;15950;51.112;6.966;2023-05-10T19:26:27;14.79;84.29
26721;HTU21D;15950;51.112;6.966;2023-05-10T19:29:27;14.74;84.54